createdAt,value
2023-12-30T00:12:26.847Z,1.70
2023-12-30T00:17:26.809Z,1.93
2023-12-30T00:27:29.862Z,2.00
2023-12-30T01:33:50.663Z,2.00
2023-12-30T01:43:51.451Z,1.90
2023-12-30T01:48:45.052Z,2.60
2023-12-30T01:53:42.935Z,2.40
2023-12-30T01:58:37.306Z,1.80
2023-12-30T02:03:30.407Z,2.10
2023-12-30T02:08:22.750Z,1.70
2023-12-30T02:13:16.000Z,1.97
2023-12-30T02:18:08.914Z,2.00
2023-12-30T02:23:02.281Z,2.30
2023-12-30T02:27:59.310Z,2.20
2023-12-30T02:32:58.491Z,1.97
2023-12-30T02:37:51.282Z,2.10
2023-12-30T02:42:44.411Z,2.00
2023-12-30T02:47:37.753Z,2.23
2023-12-30T02:52:32.054Z,2.27
2023-12-30T02:57:27.276Z,1.93
2023-12-30T03:02:23.024Z,1.90
2023-12-30T03:07:15.848Z,1.90
2023-12-30T03:12:10.748Z,1.53
2023-12-30T03:17:06.289Z,2.17
2023-12-30T03:21:59.010Z,2.10
2023-12-30T03:26:54.628Z,2.00
2023-12-30T03:31:48.141Z,2.00
2023-12-30T03:36:40.098Z,2.10
2023-12-30T03:41:36.989Z,2.07
2023-12-30T03:46:30.715Z,2.23
2023-12-30T03:51:23.885Z,2.20
2023-12-30T03:56:16.363Z,2.20
2023-12-30T04:01:10.248Z,2.30
2023-12-30T04:06:10.196Z,2.03
2023-12-30T04:11:02.430Z,1.80
2023-12-30T04:15:56.173Z,2.30
2023-12-30T04:20:48.508Z,1.97
2023-12-30T04:25:42.226Z,1.93
2023-12-30T04:40:51.861Z,2.40
2023-12-30T05:37:14.581Z,1.93
2023-12-30T05:42:07.015Z,2.23
2023-12-30T05:46:59.371Z,2.27
2023-12-30T05:51:52.086Z,2.60
2023-12-30T05:56:45.307Z,2.50
2023-12-30T06:01:48.274Z,4.60
2023-12-30T06:06:40.710Z,3.90
2023-12-30T06:11:32.843Z,4.30
2023-12-30T06:16:25.450Z,2.57
2023-12-30T06:21:19.681Z,3.47
2023-12-30T06:26:13.457Z,4.27
2023-12-30T06:31:08.491Z,4.17
2023-12-30T06:36:00.575Z,3.23
2023-12-30T06:40:53.077Z,3.67
2023-12-30T06:45:45.403Z,2.50
2023-12-30T06:50:38.696Z,2.30
2023-12-30T06:55:35.552Z,4.93
2023-12-30T07:00:35.106Z,2.73
2023-12-30T07:05:29.045Z,2.90
2023-12-30T07:10:21.155Z,3.37
2023-12-30T07:15:13.323Z,4.67
2023-12-30T07:20:07.139Z,3.90
2023-12-30T07:25:01.185Z,3.73
2023-12-30T07:29:54.515Z,3.27
2023-12-30T07:34:46.760Z,3.40
2023-12-30T07:39:39.850Z,3.87
2023-12-30T07:44:36.376Z,4.47
2023-12-30T07:49:29.531Z,2.50
2023-12-30T07:54:22.635Z,4.00
2023-12-30T07:59:15.301Z,4.20
2023-12-30T08:04:07.782Z,2.90
2023-12-30T08:08:59.828Z,2.20
2023-12-30T08:13:53.403Z,2.20
2023-12-30T08:18:46.372Z,2.90
2023-12-30T08:23:39.361Z,3.77
2023-12-30T08:28:33.014Z,2.77
2023-12-30T08:33:25.871Z,2.97
